地図

経路データ

SID SEASON NUMBER BASIN SUBBASIN NAME ISO_TIME NATURE LAT LON WMO_WIND WMO_PRES WMO_AGENCY TRACK_TYPE DIST2LAND LANDFALL IFLAG USA_AGENCY USA_ATCF_ID USA_LAT USA_LON USA_RECORD USA_STATUS USA_WIND USA_PRES USA_SSHS USA_R34_NE USA_R34_SE USA_R34_SW USA_R34_NW USA_R50_NE USA_R50_SE USA_R50_SW USA_R50_NW USA_R64_NE USA_R64_SE USA_R64_SW USA_R64_NW USA_POCI USA_ROCI USA_RMW USA_EYE TOKYO_LAT TOKYO_LON TOKYO_GRADE TOKYO_WIND TOKYO_PRES TOKYO_R50_DIR TOKYO_R50_LONG TOKYO_R50_SHORT TOKYO_R30_DIR TOKYO_R30_LONG TOKYO_R30_SHORT TOKYO_LAND CMA_LAT CMA_LON CMA_CAT CMA_WIND CMA_PRES HKO_LAT HKO_LON HKO_CAT HKO_WIND HKO_PRES NEWDELHI_LAT NEWDELHI_LON NEWDELHI_GRADE NEWDELHI_WIND NEWDELHI_PRES NEWDELHI_CI NEWDELHI_DP NEWDELHI_POCI REUNION_LAT REUNION_LON REUNION_TYPE REUNION_WIND REUNION_PRES REUNION_TNUM REUNION_CI REUNION_RMW REUNION_R34_NE REUNION_R34_SE REUNION_R34_SW REUNION_R34_NW REUNION_R50_NE REUNION_R50_SE REUNION_R50_SW REUNION_R50_NW REUNION_R64_NE REUNION_R64_SE REUNION_R64_SW REUNION_R64_NW BOM_LAT BOM_LON BOM_TYPE BOM_WIND BOM_PRES BOM_TNUM BOM_CI BOM_RMW BOM_R34_NE BOM_R34_SE BOM_R34_SW BOM_R34_NW BOM_R50_NE BOM_R50_SE BOM_R50_SW BOM_R50_NW BOM_R64_NE BOM_R64_SE BOM_R64_SW BOM_R64_NW BOM_ROCI BOM_POCI BOM_EYE BOM_POS_METHOD BOM_PRES_METHOD NADI_LAT NADI_LON NADI_CAT NADI_WIND NADI_PRES WELLINGTON_LAT WELLINGTON_LON WELLINGTON_WIND WELLINGTON_PRES DS824_LAT DS824_LON DS824_STAGE DS824_WIND DS824_PRES TD9636_LAT TD9636_LON TD9636_STAGE TD9636_WIND TD9636_PRES TD9635_LAT TD9635_LON TD9635_WIND TD9635_PRES TD9635_ROCI NEUMANN_LAT NEUMANN_LON NEUMANN_CLASS NEUMANN_WIND NEUMANN_PRES MLC_LAT MLC_LON MLC_CLASS MLC_WIND MLC_PRES USA_GUST BOM_GUST BOM_GUST_PER REUNION_GUST REUNION_GUST_PER USA_SEAHGT USA_SEARAD_NE USA_SEARAD_SE USA_SEARAD_SW USA_SEARAD_NW STORM_SPEED STORM_DIR
1936203N18087 1936 28 NI BB NOT_NAMED 1936-07-21 00:00:00 TS 18.3000 87.0000 main 200 200 _________O____ -1 18.3000 87.0000 TC 30 0 0
1936203N18087 1936 28 NI BB NOT_NAMED 1936-07-21 03:00:00 TS 18.3000 87.0000 main 200 200 _________PO___ -1 18.3000 87.0000 TC 30 18.3000 87.0000 1 0 0
1936203N18087 1936 28 NI BB NOT_NAMED 1936-07-21 06:00:00 TS 18.3025 86.9956 main 200 200 _________OP___ -1 18.3000 87.0000 TC 30 18.3063 86.9891 1 0 0
1936203N18087 1936 28 NI BB NOT_NAMED 1936-07-21 09:00:00 TS 18.3043 86.9925 main 200 200 _________PP___ -1 18.3000 87.0000 TC 30 18.3100 86.9825 1 0 0
1936203N18087 1936 28 NI BB NOT_NAMED 1936-07-21 12:00:00 TS 18.3044 86.9924 main 200 200 _________OP___ -1 18.3000 87.0000 TC 30 18.3088 86.9847 1 0 0
1936203N18087 1936 28 NI BB NOT_NAMED 1936-07-21 15:00:00 TS 18.3000 87.0000 main 200 200 _________PO___ -1 18.3000 87.0000 TC 30 18.3000 87.0000 1 0 0
1936203N18087 1936 28 NI BB NOT_NAMED 1936-07-21 18:00:00 TS 18.2918 87.0142 main 200 200 _________OP___ -1 18.3000 87.0000 TC 30 18.2837 87.0284 1 0 118
1936203N18087 1936 28 NI BB NOT_NAMED 1936-07-21 21:00:00 TS 18.2812 87.0374 main 200 200 _________PP___ -1 18.2925 87.0225 TC 30 18.2699 87.0524 1 0 0
1936203N18087 1936 28 NI BB NOT_NAMED 1936-07-22 00:00:00 TS 18.2856 87.0251 main 200 197 _________OP___ -1 18.3000 87.0000 TC 30 18.2712 87.0502 1 1 290
1936203N18087 1936 28 NI BB NOT_NAMED 1936-07-22 03:00:00 TS 18.3138 86.9400 main 197 183 _________PO___ -1 18.3275 86.8800 TC 30 18.3000 87.0000 1 3 294
1936203N18087 1936 28 NI BB NOT_NAMED 1936-07-22 06:00:00 TS 18.3877 86.7816 main 183 165 _________OP___ -1 18.4000 86.7000 TC 30 18.3755 86.8633 1 4 301
1936203N18087 1936 28 NI BB NOT_NAMED 1936-07-22 09:00:00 TS 18.5139 86.5864 main 165 148 _________PP___ -1 18.5500 86.4926 TC 30 18.4777 86.6803 1 5 305
1936203N18087 1936 28 NI BB NOT_NAMED 1936-07-22 12:00:00 TS 18.6456 86.3910 main 148 130 _________OP___ -1 18.7000 86.3000 TC 30 18.5911 86.4821 1 4 303
1936203N18087 1936 28 NI BB NOT_NAMED 1936-07-22 15:00:00 TS 18.7287 86.2425 main 130 119 _________PO___ -1 18.7575 86.1849 TC 30 18.7000 86.3000 1 3 301
1936203N18087 1936 28 NI BB NOT_NAMED 1936-07-22 18:00:00 TS 18.7788 86.1512 main 119 115 _________OP___ -1 18.8000 86.1000 TC 30 18.7576 86.2024 1 2 305
1936203N18087 1936 28 NI BB NOT_NAMED 1936-07-22 21:00:00 TS 18.8448 86.0722 main 115 100 _________PP___ -1 18.8774 86.0224 TC 30 18.8122 86.1219 1 2 313
1936203N18087 1936 28 NI BB NOT_NAMED 1936-07-23 00:00:00 TS 18.9428 85.9652 main 100 69 _________OP___ -1 19.0000 85.9000 TC 30 18.8857 86.0304 1 4 312
1936203N18087 1936 28 NI BB NOT_NAMED 1936-07-23 03:00:00 TS 19.0888 85.7863 main 69 39 _________PO___ -1 19.1775 85.6725 TC 30 19.0000 85.9000 1 5 311
1936203N18087 1936 28 NI BB NOT_NAMED 1936-07-23 06:00:00 TS 19.2931 85.5407 main 35 10 _________OP___ -1 19.4000 85.4000 TC 30 19.1862 85.6813 1 7 313
1936203N18087 1936 28 NI BB NOT_NAMED 1936-07-23 09:00:00 TS 19.5314 85.2828 main 10 0 _________PP___ -1 19.6500 85.1425 TC 30 19.4128 85.4231 1 7 315
1936203N18087 1936 28 NI BB NOT_NAMED 1936-07-23 12:00:00 TS 19.7790 85.0266 main 0 0 _________OP___ -1 19.9000 84.9000 TC 30 19.6580 85.1532 1 7 316
1936203N18087 1936 28 NI BB NOT_NAMED 1936-07-23 15:00:00 TS 20.0037 84.7925 main 0 0 _________PO___ -1 20.1075 84.6849 TC 30 19.9000 84.9000 1 6 317
1936203N18087 1936 28 NI BB NOT_NAMED 1936-07-23 18:00:00 TS 20.2035 84.6016 main 0 0 _________OP___ -1 20.3000 84.5000 TC 30 20.1070 84.7031 1 5 320
1936203N18087 1936 28 NI BB NOT_NAMED 1936-07-23 21:00:00 TS 20.4036 84.4385 main 0 0 _________PP___ -1 20.4999 84.3499 TC 30 20.3073 84.5271 1 5 323
1936203N18087 1936 28 NI BB NOT_NAMED 1936-07-24 00:00:00 TS 20.6020 84.2813 main 0 0 _________OP___ -1 20.7000 84.2000 TC 30 20.5039 84.3625 1 5 321
1936203N18087 1936 28 NI BB NOT_NAMED 1936-07-24 03:00:00 TS 20.8000 84.1000 main 0 0 _________PO___ -1 20.9000 84.0000 TC 30 20.7000 84.2000 1 5 319
1936203N18087 1936 28 NI BB NOT_NAMED 1936-07-24 06:00:00 TS 20.9939 83.9144 main 0 0 _________OP___ -1 21.1000 83.8000 TC 30 20.8877 84.0288 1 5 320
1936203N18087 1936 28 NI BB NOT_NAMED 1936-07-24 09:00:00 TS 21.1849 83.7535 main 0 0 _________PP___ -1 21.2924 83.6499 TC 30 21.0774 83.8571 1 5 323
1936203N18087 1936 28 NI BB NOT_NAMED 1936-07-24 12:00:00 TS 21.3892 83.5909 main 0 0 _________OP___ -1 21.5000 83.5000 TC 30 21.2783 83.6818 1 5 323
1936203N18087 1936 28 NI BB NOT_NAMED 1936-07-24 15:00:00 TS 21.6175 83.4037 main 0 0 _________PO___ -1 21.7350 83.3075 TC 30 21.5000 83.5000 1 6 323
1936203N18087 1936 28 NI BB NOT_NAMED 1936-07-24 18:00:00 TS 21.8788 83.1996 main 0 0 _________OP___ -1 22.0000 83.1000 TC 30 21.7575 83.2992 1 7 325
1936203N18087 1936 28 NI BB NOT_NAMED 1936-07-24 21:00:00 TS 22.1675 82.9926 main 0 0 _________PP___ -1 22.3000 82.8925 TC 30 22.0351 83.0927 1 7 327
1936203N18087 1936 28 NI BB NOT_NAMED 1936-07-25 00:00:00 TS 22.4600 82.7949 main 0 0 _________OP___ -1 22.6000 82.7000 TC 30 22.3200 82.8898 1 7 329
1936203N18087 1936 28 NI BB NOT_NAMED 1936-07-25 03:00:00 TS 22.7287 82.6212 main 0 0 _________PO___ -1 22.8575 82.5424 TC 30 22.6000 82.7000 1 6 330
1936203N18087 1936 28 NI BB NOT_NAMED 1936-07-25 06:00:00 TS 22.9785 82.4656 main 0 0 _________OP___ -1 23.1000 82.4000 TC 30 22.8571 82.5313 1 6 330
1936203N18087 1936 28 NI BB NOT_NAMED 1936-07-25 09:00:00 TS 23.2249 82.3135 main 0 0 _________PP___ -1 23.3425 82.2499 TC 30 23.1074 82.3771 1 6 331
1936203N18087 1936 28 NI BB NOT_NAMED 1936-07-25 12:00:00 TS 23.4770 82.1672 main 0 0 _________OP___ -1 23.6000 82.1000 TC 30 23.3540 82.2345 1 6 333
1936203N18087 1936 28 NI BB NOT_NAMED 1936-07-25 15:00:00 TS 23.7538 82.0213 main 0 0 _________PO___ -1 23.9075 81.9426 TC 30 23.6000 82.1000 1 6 335
1936203N18087 1936 28 NI BB NOT_NAMED 1936-07-25 18:00:00 TS 24.0453 81.8738 main 0 0 _________OP___ -1 24.2000 81.8000 TC 30 23.8906 81.9477 1 6 335
1936203N18087 1936 28 NI BB NOT_NAMED 1936-07-25 21:00:00 TS 24.3100 81.7414 main 0 0 _________PP___ -1 24.4450 81.6775 TC 30 24.1750 81.8053 1 5 336
1936203N18087 1936 28 NI BB NOT_NAMED 1936-07-26 00:00:00 TS 24.5110 81.6426 main 0 0 _________OP___ -1 24.6000 81.6000 TC 30 24.4219 81.6852 1 3 336
1936203N18087 1936 28 NI BB NOT_NAMED 1936-07-26 03:00:00 TS 24.6150 81.5925 main 0 0 _________PO___ -1 24.6300 81.5849 TC 30 24.6000 81.6000 1 1 336
1936203N18087 1936 28 NI BB NOT_NAMED 1936-07-26 06:00:00 TS 24.6359 81.5819 main 0 0 _________OP___ -1 24.6000 81.6000 TC 30 24.6718 81.5638 1 0 0
1936203N18087 1936 28 NI BB NOT_NAMED 1936-07-26 09:00:00 TS 24.6375 81.5811 main 0 0 _________PP___ -1 24.6000 81.6000 TC 30 24.6749 81.5622 1 0 0
1936203N18087 1936 28 NI BB NOT_NAMED 1936-07-26 12:00:00 TS 24.6203 81.5898 main 0 0 _________OP___ -1 24.6000 81.6000 TC 30 24.6406 81.5795 1 0 161
1936203N18087 1936 28 NI BB NOT_NAMED 1936-07-26 15:00:00 TS 24.6000 81.6000 main 0 0 _________PO___ -1 24.6000 81.6000 TC 30 24.6000 81.6000 1 0 0
1936203N18087 1936 28 NI BB NOT_NAMED 1936-07-26 18:00:00 TS 24.5777 81.6060 main 0 0 _________OP___ -1 24.6000 81.6000 TC 30 24.5553 81.6121 1 1 0
1936203N18087 1936 28 NI BB NOT_NAMED 1936-07-26 21:00:00 TS 24.5437 81.6149 main 0 0 _________PP___ -1 24.5700 81.6075 TC 30 24.5175 81.6223 1 0 0
1936203N18087 1936 28 NI BB NOT_NAMED 1936-07-27 00:00:00 TS 24.5605 81.6107 main 0 0 _________OP___ -1 24.6000 81.6000 TC 30 24.5209 81.6214 1 1 342
1936203N18087 1936 28 NI BB NOT_NAMED 1936-07-27 03:00:00 TS 24.6737 81.5825 main 0 0 _________PO___ -1 24.7475 81.5649 TC 30 24.6000 81.6000 1 3 346
1936203N18087 1936 28 NI BB NOT_NAMED 1936-07-27 06:00:00 TS 24.8980 81.5234 main 0 0 _________OP___ -1 25.0000 81.5000 TC 30 24.7960 81.5467 1 5 346
1936203N18087 1936 28 NI BB NOT_NAMED 1936-07-27 09:00:00 TS 25.2050 81.4402 main 0 0 _________PP___ -1 25.3425 81.4076 TC 30 25.0676 81.4727 1 7 346
1936203N18087 1936 28 NI BB NOT_NAMED 1936-07-27 12:00:00 TS 25.5402 81.3437 main 0 0 _________OP___ -1 25.7000 81.3000 TC 30 25.3804 81.3873 1 7 344
1936203N18087 1936 28 NI BB NOT_NAMED 1936-07-27 15:00:00 TS 25.8288 81.2462 main 0 0 _________PO___ -1 25.9575 81.1925 TC 30 25.7000 81.3000 1 6 344
1936203N18087 1936 28 NI BB NOT_NAMED 1936-07-27 18:00:00 TS 26.0852 81.1677 main 0 0 _________OP___ -1 26.2000 81.1000 TC 30 25.9990 81.2184 1 6 346
1936203N18087 1936 28 NI BB NOT_NAMED 1936-07-27 21:00:00 TS 26.3605 81.1015 main 0 0 _________PP___ -1 26.4850 81.0400 TC 30 26.2775 81.1425 1 6 349
1936203N18087 1936 28 NI BB NOT_NAMED 1936-07-28 00:00:00 TS 26.6281 81.0469 main 0 0 _________OP___ -1 26.8000 81.0000 TC 30 26.5422 81.0704 1 5 349
1936203N18087 1936 28 NI BB NOT_NAMED 1936-07-28 03:00:00 NR 26.8000 81.0000 main 0 __________O___ -1 TC 26.8000 81.0000 1 4 346

IBTrACS Databaseについて

本データベースは、米国NOAAが公開する1842年以降の世界の熱帯低気圧のベストトラックデータアーカイブInternational Best Track Archive for Climate Stewardship (IBTrACS)を、ウェブで閲覧しやすい形式に変換したものです。

最終更新日:2021-10-27